Weather at Fuzuli International Airport

Public forecast

Using degrees Celsius for public forecast. Weather courtesy of forecast.io.

Closest aviation weather report (METAR) to Fuzuli International Airport

Closest report is Parsabad-Moghan Airport, 31.7 nm (58.7 km) E. Retrieved 2022/08/18 04:00 UTC (16 minutes ago):

OITP 180400Z 22008KT CAVOK 25/23 Q1009

Closest aviation forecast (TAF) to Fuzuli International Airport

Forecast is more than 12 hours old.

Closest forecast is Yevlakh Airport, 62.3 nm (115.4 km) N. Retrieved 2017/04/28 09:30 UTC (5 years ago):

TAF TAF UBEE 280800Z 2809/2918 VRB04KT 9999 SCT040 BKN070